Skip Navigation Links
NOAA logo - Click to go to the NOAA homepage
NOAA's National Weather Service
Alaska Aviation Weather Unit
  NWS logo - Click to go to the NWS homepage
Left Navbar Graphic     02 AKDT = 10 GMT

   
NOAA is celebrating 200 years of science, service, and stewardship. Visit the NOAA 200th celebration Web site to learn more.
USA.gov is the U.S. Government's official Web portal to all Federal, state and local government Web resources and services.
Facebook
NWS on Facebook

AAWU Home :: Display TAF Add Bookmark
METAR PAKH 290456Z AUTO 31018G23KT CLR M02/M08 A2956 RMK AO2 SLP010
 T10171078 PWINO FZRANO $=

METAR PAKH 290556Z AUTO 31012KT CLR M02/M08 A2958 RMK AO2 SLP019
 T10221083 11006 21022 53019 PWINO FZRANO $=

METAR PAKH 290656Z AUTO 30007KT CLR M03/M08 A2961 RMK AO2 SLP027
 T10281083 PWINO FZRANO $=

METAR PAKH 290856Z AUTO 32016G21KT CLR M03/M08 A2962 RMK AO2 SLP033
 T10281078 400111044 51013 PWINO FZRANO $=

METAR PAKH 290956Z AUTO 30020KT CLR M03/M08 A2964 RMK AO2 SLP037
 T10281083 PWINO FZRANO $=


NOAA's National Weather Service
Alaska Aviation Weather Unit
6930 Sand Lake Road
Anchorage, AK 99502-1845
Disclaimer
Credits
Glossary
Privacy Policy
About Us
Career Opportunities
Contact AAWU Internet Services Site last modified: April, 17th 2012